Thunder radar more information blitzortung!


Löydät sääaseman tiedot myös:

European Weather Network

Finland Weather Exchange

Weather Underground

AWEKAS



Weather Underground säähistoriasivu

Päivittäin yhteenveto Joulukuu 19, 2018 Yksiköt:  Metriset    Englantilaiset   Molemmat
« Edellinen Päivä
Seuraava Päivä »
Päivittäin Viikoittain Kuukausittain Vuosittain Mukautettu
  Tämänhetkinen: Korkea: Matala: Keskiarvo:
Lämpötila: -18.8 °C -17.8 °C -19.2 °C -18.7 °C
Kastepiste: -19.2 °C -17.8 °C -19.4 °C -19.1 °C
Kosteus: 95 % Humidity % 94 % 95 %
Tuulen nopeus: 0 km/h 0 km/h 0 km/h 0 km/h
Tuulenpuuska: 0 km/h 0 km/h - -
Tuuli:Calm - - SSE
Ilmanpaine: 34787.8 hPa 0 hPa 34740.4 hPa -
Sade: 0 mm      
Historical Graphs
 
 
Taulukkotiedot Joulukuu 19, 2018
Aika Lämpötila Kastepiste Ilmanpaine Tuuli Tuulen nopeus Tuulenpuuska Kosteus Sademäärä (tunneittain)
-17.8 °C -17.8 °C 0 hPa Calm     Humidity % 0 mm
00:00 -19.1 °C -19.3 °C 34750.5 hPa Calm     97 % 0 mm
00:15 -19.1 °C -19.3 °C 34750.5 hPa Calm   5.1 km/h 97 % 0 mm
00:30 -19.1 °C -19.3 °C 34750.5 hPa Calm   5.1 km/h 97 % 0 mm
00:45 -19.1 °C -19.4 °C 34750.5 hPa Calm   5.1 km/h 97 % 0 mm
01:00 -19.2 °C -19.4 °C 34750.5 hPa SE 2.6 km/h 15.6 km/h 97 % 0 mm
01:15 -19.2 °C -19.4 °C 34753.9 hPa Calm   7.7 km/h 97 % 0 mm
01:30 -19.2 °C -19.4 °C 34753.9 hPa Calm     97 % 0 mm
01:45 -19.1 °C -19.4 °C 34753.9 hPa Calm     97 % 0 mm
02:00 -19.1 °C -19.4 °C 34750.5 hPa Calm   2.6 km/h 96 % 0 mm
02:15 -19.1 °C -19.4 °C 34750.5 hPa Calm   5.1 km/h 96 % 0 mm
02:30 -19.1 °C -19.4 °C 34750.5 hPa Calm     96 % 0 mm
02:45 -19.1 °C -19.4 °C 34750.5 hPa Calm     96 % 0 mm
03:00 -19.1 °C -19.4 °C 34750.5 hPa Calm     96 % 0 mm
03:15 -19.1 °C -19.3 °C 34750.5 hPa Calm     96 % 0 mm
03:30 -19.1 °C -19.3 °C 34747.1 hPa Calm     96 % 0 mm
03:45 -19 °C -19.3 °C 34750.5 hPa Calm     96 % 0 mm
04:00 -19 °C -19.3 °C 34753.9 hPa Calm     96 % 0 mm
04:15 -19 °C -19.2 °C 34750.5 hPa Calm     97 % 0 mm
04:30 -19 °C -19.2 °C 34750.5 hPa Calm   2.6 km/h 97 % 0 mm
04:45 -19 °C -19.2 °C 34747.1 hPa Calm     97 % 0 mm
05:00 -18.9 °C -19.3 °C 34750.5 hPa Calm     96 % 0 mm
05:15 -18.9 °C -19.2 °C 34750.5 hPa Calm     96 % 0 mm
05:30 -18.9 °C -19.2 °C 34753.9 hPa Calm     96 % 0 mm
05:45 -18.9 °C -19.2 °C 34750.5 hPa Calm     96 % 0 mm
06:00 -18.8 °C -19.2 °C 34747.1 hPa Calm     96 % 0 mm
06:15 -18.8 °C -19.1 °C 34743.7 hPa Calm   2.6 km/h 96 % 0 mm
06:30 -18.8 °C -19 °C 34740.4 hPa Calm     97 % 0 mm
06:45 -18.8 °C -19 °C 34743.7 hPa Calm     97 % 0 mm
07:00 -18.8 °C -19 °C 34743.7 hPa Calm     97 % 0 mm
07:15 -18.7 °C -18.9 °C 34743.7 hPa Calm     97 % 0 mm
07:30 -18.7 °C -19 °C 34747.1 hPa Calm     96 % 0 mm
07:45 -18.7 °C -18.9 °C 34747.1 hPa Calm     97 % 0 mm
08:00 -18.7 °C -18.9 °C 34747.1 hPa Calm     97 % 0 mm
08:15 -18.7 °C -18.9 °C 34747.1 hPa Calm   2.6 km/h 97 % 0 mm
08:30 -18.6 °C -18.8 °C 34747.1 hPa Calm   5.1 km/h 97 % 0 mm
08:45 -18.6 °C -18.8 °C 34750.5 hPa Calm     97 % 0 mm
09:00 -18.5 °C -18.8 °C 34750.5 hPa Calm   2.6 km/h 96 % 0 mm
09:15 -18.5 °C -18.7 °C 34750.5 hPa Calm     97 % 0 mm
09:30 -18.4 °C -18.7 °C 34753.9 hPa SSE 2.6 km/h 15.6 km/h 97 % 0 mm
09:45 -18.4 °C -18.7 °C 34757.3 hPa Calm   7.7 km/h 96 % 0 mm
10:00 -18.4 °C -18.7 °C 34764.1 hPa Calm     96 % 0 mm
10:15 -18.4 °C -18.7 °C 34767.4 hPa Calm   5.1 km/h 96 % 0 mm
10:30 -18.4 °C -18.7 °C 34770.8 hPa Calm   7.7 km/h 96 % 0 mm
10:45 -18.3 °C -18.7 °C 34770.8 hPa Calm     96 % 0 mm
11:00 -18.3 °C -18.7 °C 34770.8 hPa Calm   5.1 km/h 96 % 0 mm
11:15 -18.3 °C -18.7 °C 34774.2 hPa Calm     96 % 0 mm
11:30 -18.3 °C -18.6 °C 34777.6 hPa Calm     96 % 0 mm
11:45 -18.2 °C -18.6 °C 34777.6 hPa Calm   7.7 km/h 96 % 0 mm
12:00 -18.2 °C -18.6 °C 34777.6 hPa Calm   7.7 km/h 95 % 0 mm
12:15 -18.4 °C -18.8 °C 34777.6 hPa Calm     94 % 0 mm
12:30 -18.4 °C -18.9 °C 34777.6 hPa Calm   5.1 km/h 94 % 0 mm
12:45 -18.4 °C -18.9 °C 34777.6 hPa Calm     94 % 0 mm
13:00 -18.4 °C -18.9 °C 34781 hPa Calm     94 % 0 mm
13:15 -18.4 °C -18.9 °C 34781 hPa Calm     94 % 0 mm
13:30 -18.4 °C -18.8 °C 34781 hPa Calm     95 % 0 mm
13:45 -18.4 °C -18.8 °C 34784.4 hPa Calm   7.7 km/h 95 % 0 mm
14:00 -18.4 °C -18.9 °C 34781 hPa Calm   10.3 km/h 94 % 0 mm
14:15 -18.4 °C -18.9 °C 34781 hPa Calm   5.1 km/h 94 % 0 mm
14:30 -18.5 °C -18.9 °C 34781 hPa Calm   2.6 km/h 94 % 0 mm
14:45 -18.7 °C -19.1 °C 34781 hPa Calm     94 % 0 mm
15:00 -18.7 °C -19.2 °C 34781 hPa Calm     94 % 0 mm
15:15 -18.8 °C -19.3 °C 34784.4 hPa Calm     94 % 0 mm
15:30 -18.8 °C -19.2 °C 34784.4 hPa Calm     95 % 0 mm
15:45 -18.8 °C -19.2 °C 34784.4 hPa Calm     95 % 0 mm
16:00 -18.8 °C -19.2 °C 34784.4 hPa Calm   10.3 km/h 95 % 0 mm
16:15 -18.8 °C -19.2 °C 34787.8 hPa Calm     95 % 0 mm
Esan sääasema
Terveisin Weather Underground - 2.75 mb

Alkuperäinen skripti  Jim McMurry - jmcmurry@mwt.net Sovitettu myös templatelle  Wim van der Kuil - Leuven-Template.eu

Laitteet joita käytämme:

Sääasema
Davis VP2

Sääasemaohjelma
Cumulus

Sääaseman tietokone
Asus EeePC

Palveluntarjoaja
Suncomet

Davis VP2

Cumulus

Asus EeePC

Suncomet